Time;durP1;ratioP1;P1;durP2;ratioP2;P2;SDS_P1;SDS_P2;PMS_P1;PMS_P2;Temp;Humidity;BMP_temperature;BMP_pressure;BME280_temperature;BME280_humidity;BME280_pressure;Samples;Min_cycle;Max_cycle;Signal;HPM_P1;HPM_P2
2022/09/18 00:01:41;;;;;;;1.77;0.90;;;;;;;;;;5055735;28;20406;-72
2022/09/18 00:04:09;;;;;;;4.57;1.30;;;;;;;;;;5055708;28;20498;-68
2022/09/18 00:06:37;;;;;;;2.85;1.10;;;;;;;;;;5055325;28;20236;-69
2022/09/18 00:09:05;;;;;;;6.65;1.33;;;;;;;;;;5055429;28;20040;-70
2022/09/18 00:11:35;;;;;;;6.43;1.40;;;;;;;;;;5055607;28;20029;-69
2022/09/18 00:14:01;;;;;;;3.88;1.20;;;;;;;;;;5055558;28;20078;-69
2022/09/18 00:16:27;;;;;;;3.80;1.20;;;;;;;;;;5055279;28;20037;-69
2022/09/18 00:18:53;;;;;;;5.65;1.25;;;;;;;;;;5055311;28;20032;-69
2022/09/18 00:21:22;;;;;;;3.20;1.02;;;;;;;;;;5054926;28;20068;-68
2022/09/18 00:23:48;;;;;;;5.53;1.20;;;;;;;;;;5055308;28;20025;-69
2022/09/18 00:26:16;;;;;;;2.92;1.00;;;;;;;;;;5054984;28;20044;-72
2022/09/18 00:28:41;;;;;;;4.43;1.30;;;;;;;;;;5055142;28;20543;-68
2022/09/18 00:31:10;;;;;;;4.97;1.23;;;;;;;;;;5055052;28;20033;-70
2022/09/18 00:33:38;;;;;;;5.18;1.30;;;;;;;;;;5054929;28;20454;-72
2022/09/18 00:36:06;;;;;;;5.82;1.42;;;;;;;;;;5054729;28;20445;-71
2022/09/18 00:38:32;;;;;;;5.70;1.25;;;;;;;;;;5054688;28;20029;-69
2022/09/18 00:40:58;;;;;;;4.05;1.33;;;;;;;;;;5055101;28;20521;-71
2022/09/18 00:43:28;;;;;;;5.18;1.40;;;;;;;;;;5054909;28;20021;-71
2022/09/18 00:46:04;;;;;;;4.37;1.30;;;;;;;;;;5054748;28;20374;-70
2022/09/18 00:48:36;;;;;;;3.47;1.15;;;;;;;;;;5054578;28;20028;-72
2022/09/18 00:51:02;;;;;;;3.40;1.25;;;;;;;;;;5054554;28;20021;-72
2022/09/18 00:53:28;;;;;;;3.55;1.30;;;;;;;;;;5053890;28;20390;-72
2022/09/18 00:55:56;;;;;;;4.90;1.38;;;;;;;;;;5054498;28;20036;-72
2022/09/18 00:58:21;;;;;;;5.32;1.65;;;;;;;;;;5054446;28;20032;-69
2022/09/18 01:00:47;;;;;;;6.28;1.85;;;;;;;;;;5054605;28;20386;-72
2022/09/18 01:03:12;;;;;;;3.33;1.40;;;;;;;;;;5054559;28;20492;-72
2022/09/18 01:05:43;;;;;;;4.45;1.50;;;;;;;;;;5054244;28;20032;-68
2022/09/18 01:08:24;;;;;;;3.03;1.27;;;;;;;;;;5054488;28;20032;-72
2022/09/18 01:11:14;;;;;;;2.40;1.10;;;;;;;;;;5054344;28;20021;-70
2022/09/18 01:13:53;;;;;;;2.13;1.00;;;;;;;;;;4992827;28;20492;-71
2022/09/18 01:16:25;;;;;;;2.10;1.02;;;;;;;;;;4992690;28;20125;-72
2022/09/18 01:19:09;;;;;;;2.05;1.05;;;;;;;;;;4992545;28;20542;-71
2022/09/18 01:21:49;;;;;;;1.55;0.90;;;;;;;;;;4992558;28;20125;-69
2022/09/18 01:24:32;;;;;;;1.85;0.98;;;;;;;;;;4992621;28;20034;-70
2022/09/18 01:27:05;;;;;;;3.78;1.02;;;;;;;;;;4992621;28;20125;-72
2022/09/18 01:29:34;;;;;;;4.57;1.15;;;;;;;;;;4992788;28;20108;-72
2022/09/18 01:32:14;;;;;;;4.50;1.20;;;;;;;;;;4992715;28;20041;-71
2022/09/18 01:35:12;;;;;;;3.90;1.40;;;;;;;;;;4992426;28;20026;-72
2022/09/18 01:37:49;;;;;;;7.00;1.20;;;;;;;;;;4992564;28;20045;-70
2022/09/18 01:40:31;;;;;;;5.50;1.50;;;;;;;;;;4992419;28;20022;-72
2022/09/18 01:43:01;;;;;;;3.90;1.63;;;;;;;;;;4992479;28;20034;-70
2022/09/18 01:45:32;;;;;;;5.32;1.45;;;;;;;;;;4992438;28;20035;-71
2022/09/18 01:48:02;;;;;;;5.00;1.40;;;;;;;;;;4992209;28;20387;-72
2022/09/18 01:50:31;;;;;;;2.85;1.60;;;;;;;;;;5009191;28;20101;-69
2022/09/18 01:53:20;;;;;;;4.55;1.20;;;;;;;;;;5033711;28;20562;-67
2022/09/18 01:55:51;;;;;;;5.00;1.33;;;;;;;;;;5033539;28;20037;-72
2022/09/18 01:58:20;;;;;;;4.43;1.70;;;;;;;;;;5033625;28;20029;-73
2022/09/18 02:00:51;;;;;;;6.03;1.52;;;;;;;;;;5033597;28;20026;-72
2022/09/18 02:03:33;;;;;;;3.97;1.70;;;;;;;;;;5033242;28;20112;-72
2022/09/18 02:06:09;;;;;;;3.83;1.50;;;;;;;;;;5032983;28;20100;-72
2022/09/18 02:08:52;;;;;;;4.22;1.63;;;;;;;;;;5033491;28;20100;-72
2022/09/18 02:11:19;;;;;;;4.78;1.45;;;;;;;;;;5033569;28;20018;-68
2022/09/18 02:14:15;;;;;;;3.70;1.40;;;;;;;;;;5033212;28;20033;-69
2022/09/18 02:16:44;;;;;;;2.22;1.40;;;;;;;;;;5033004;28;20036;-68
2022/09/18 02:19:20;;;;;;;2.60;1.42;;;;;;;;;;5033081;28;20056;-69
2022/09/18 02:21:50;;;;;;;7.20;1.35;;;;;;;;;;5043816;28;20060;-70
2022/09/18 02:24:19;;;;;;;5.78;1.13;;;;;;;;;;5053061;28;20021;-69
2022/09/18 02:26:46;;;;;;;7.43;1.40;;;;;;;;;;5053118;28;20025;-68
2022/09/18 02:29:14;;;;;;;7.32;1.33;;;;;;;;;;5053001;28;20108;-69
2022/09/18 02:31:40;;;;;;;4.03;1.10;;;;;;;;;;5052735;28;20378;-71
2022/09/18 02:34:07;;;;;;;3.38;1.00;;;;;;;;;;5052946;28;20025;-68
2022/09/18 02:37:07;;;;;;;2.95;0.90;;;;;;;;;;5052660;28;20355;-69
2022/09/18 02:40:11;;;;;;;2.63;0.88;;;;;;;;;;5052281;28;20057;-69
2022/09/18 02:42:52;;;;;;;2.78;1.25;;;;;;;;;;5052702;28;20090;-68
2022/09/18 02:45:20;;;;;;;2.88;0.70;;;;;;;;;;5052544;28;20111;-68
2022/09/18 02:48:23;;;;;;;1.42;0.85;;;;;;;;;;5052832;28;20029;-69
2022/09/18 02:51:07;;;;;;;7.10;0.75;;;;;;;;;;5052689;28;20113;-72
2022/09/18 02:53:45;;;;;;;3.28;0.80;;;;;;;;;;5052621;28;20025;-69
2022/09/18 02:56:18;;;;;;;3.42;0.70;;;;;;;;;;5052742;28;20063;-70
2022/09/18 02:58:51;;;;;;;1.30;0.60;;;;;;;;;;5052668;28;20029;-69
2022/09/18 03:01:19;;;;;;;2.72;0.60;;;;;;;;;;5052567;28;20053;-68
2022/09/18 03:03:45;;;;;;;1.63;0.60;;;;;;;;;;5052482;28;20033;-68
2022/09/18 03:06:11;;;;;;;0.60;0.50;;;;;;;;;;5052627;28;20025;-69
2022/09/18 03:08:37;;;;;;;1.38;0.50;;;;;;;;;;5052636;28;20028;-68
2022/09/18 03:11:02;;;;;;;0.45;0.40;;;;;;;;;;5052409;28;20029;-68
2022/09/18 03:13:28;;;;;;;0.47;0.43;;;;;;;;;;5052635;28;20079;-69
2022/09/18 03:15:54;;;;;;;3.15;0.40;;;;;;;;;;5053583;28;20025;-72
2022/09/18 03:18:19;;;;;;;2.22;0.40;;;;;;;;;;5056516;28;20492;-72
2022/09/18 03:20:46;;;;;;;2.58;0.52;;;;;;;;;;5056362;28;20124;-69
2022/09/18 03:23:11;;;;;;;1.85;0.50;;;;;;;;;;5056566;28;20387;-68
2022/09/18 03:25:37;;;;;;;1.77;0.57;;;;;;;;;;5056467;28;20075;-69
2022/09/18 03:28:03;;;;;;;1.00;0.55;;;;;;;;;;5056442;28;20032;-69
2022/09/18 03:30:30;;;;;;;1.00;0.40;;;;;;;;;;5056392;28;20120;-72
2022/09/18 03:32:55;;;;;;;0.30;0.30;;;;;;;;;;5056320;28;20100;-68
2022/09/18 03:35:21;;;;;;;0.38;0.38;;;;;;;;;;5056167;28;20037;-73
2022/09/18 03:37:47;;;;;;;1.48;0.43;;;;;;;;;;5056243;28;20025;-68
2022/09/18 03:40:14;;;;;;;0.40;0.40;;;;;;;;;;5055002;28;20107;-70
2022/09/18 03:42:43;;;;;;;1.73;0.52;;;;;;;;;;5056182;28;20025;-69
2022/09/18 03:45:10;;;;;;;1.95;0.88;;;;;;;;;;5055945;28;20417;-68
2022/09/18 03:47:35;;;;;;;0.90;0.40;;;;;;;;;;5056206;28;20025;-68
2022/09/18 03:50:01;;;;;;;0.63;0.43;;;;;;;;;;5054831;28;20159;-72
2022/09/18 03:52:26;;;;;;;2.40;0.50;;;;;;;;;;5055992;28;20025;-69
2022/09/18 03:54:53;;;;;;;0.70;0.50;;;;;;;;;;5055897;28;20025;-69
2022/09/18 03:57:19;;;;;;;1.95;0.50;;;;;;;;;;5055988;28;20029;-69
2022/09/18 03:59:44;;;;;;;1.08;0.40;;;;;;;;;;5055749;28;20078;-68
2022/09/18 04:02:10;;;;;;;0.43;0.40;;;;;;;;;;5055688;28;20025;-68
2022/09/18 04:04:35;;;;;;;2.22;0.60;;;;;;;;;;5055914;28;20095;-70
2022/09/18 04:07:01;;;;;;;0.45;0.45;;;;;;;;;;5055906;28;20116;-70
2022/09/18 04:09:26;;;;;;;0.55;0.50;;;;;;;;;;5055820;28;20540;-72
2022/09/18 04:11:52;;;;;;;1.00;0.40;;;;;;;;;;5055971;28;20025;-69
2022/09/18 04:14:17;;;;;;;2.42;0.52;;;;;;;;;;5055501;28;20397;-69
2022/09/18 04:16:42;;;;;;;0.68;0.50;;;;;;;;;;5055375;28;20082;-72
2022/09/18 04:19:08;;;;;;;0.65;0.50;;;;;;;;;;5055474;28;20538;-72
2022/09/18 04:21:33;;;;;;;0.80;0.57;;;;;;;;;;5055246;28;20032;-72
2022/09/18 04:23:59;;;;;;;0.45;0.38;;;;;;;;;;5055554;28;20112;-72
2022/09/18 04:26:25;;;;;;;1.90;0.60;;;;;;;;;;5055055;28;20031;-69
2022/09/18 04:28:51;;;;;;;2.00;0.50;;;;;;;;;;5054352;28;20063;-73
2022/09/18 04:31:17;;;;;;;2.33;0.70;;;;;;;;;;5055352;28;20469;-72
2022/09/18 04:33:43;;;;;;;1.88;0.60;;;;;;;;;;5055244;28;20025;-69
2022/09/18 04:36:08;;;;;;;2.55;0.70;;;;;;;;;;5055088;28;20037;-72
2022/09/18 04:38:34;;;;;;;1.58;1.00;;;;;;;;;;5055142;28;20102;-68
2022/09/18 04:41:00;;;;;;;1.13;0.60;;;;;;;;;;5055069;28;20102;-73
2022/09/18 04:43:26;;;;;;;1.25;0.70;;;;;;;;;;5055036;28;20076;-70
2022/09/18 04:45:53;;;;;;;2.97;0.68;;;;;;;;;;5055088;28;20031;-72
2022/09/18 04:48:19;;;;;;;1.83;0.80;;;;;;;;;;5055069;28;20051;-69
2022/09/18 04:50:46;;;;;;;4.93;1.83;;;;;;;;;;5054843;28;20040;-73
2022/09/18 04:53:13;;;;;;;2.53;1.00;;;;;;;;;;5055044;28;20037;-72
2022/09/18 04:55:38;;;;;;;2.67;0.80;;;;;;;;;;5054628;28;20029;-73
2022/09/18 04:58:04;;;;;;;2.25;0.75;;;;;;;;;;5054802;28;20098;-72
2022/09/18 05:00:30;;;;;;;3.03;1.08;;;;;;;;;;5054938;28;20021;-73
2022/09/18 05:02:56;;;;;;;7.95;0.90;;;;;;;;;;5054500;28;20032;-72
2022/09/18 05:05:22;;;;;;;5.10;0.95;;;;;;;;;;5054654;28;20025;-70
2022/09/18 05:07:47;;;;;;;5.97;1.02;;;;;;;;;;5054492;28;20025;-69
2022/09/18 05:10:13;;;;;;;2.55;0.90;;;;;;;;;;5054358;28;20028;-71
2022/09/18 05:12:39;;;;;;;3.38;0.70;;;;;;;;;;5054625;28;20036;-72
2022/09/18 05:15:05;;;;;;;4.40;1.00;;;;;;;;;;5054275;28;20119;-72
2022/09/18 05:17:31;;;;;;;2.72;1.02;;;;;;;;;;5054425;28;20036;-69
2022/09/18 05:19:57;;;;;;;8.38;1.42;;;;;;;;;;5052925;28;20461;-69
2022/09/18 05:22:23;;;;;;;8.10;1.10;;;;;;;;;;5054054;28;20117;-69
2022/09/18 05:24:49;;;;;;;4.50;1.20;;;;;;;;;;5054094;28;20029;-72
2022/09/18 05:27:14;;;;;;;6.63;1.23;;;;;;;;;;5054179;28;20033;-71
2022/09/18 05:29:40;;;;;;;4.78;0.90;;;;;;;;;;5054181;28;20386;-69
2022/09/18 05:32:05;;;;;;;6.85;1.20;;;;;;;;;;5054164;28;20079;-69
2022/09/18 05:34:31;;;;;;;6.75;1.38;;;;;;;;;;5054108;28;20043;-72
2022/09/18 05:36:56;;;;;;;7.38;1.00;;;;;;;;;;5053944;28;20032;-69
2022/09/18 05:39:22;;;;;;;7.32;1.40;;;;;;;;;;5053515;28;20092;-72
2022/09/18 05:41:49;;;;;;;12.43;1.42;;;;;;;;;;5054109;28;20036;-70
2022/09/18 05:44:16;;;;;;;4.55;1.10;;;;;;;;;;5053625;28;20474;-68
2022/09/18 05:46:41;;;;;;;7.75;1.88;;;;;;;;;;5053816;28;20035;-70
2022/09/18 05:49:07;;;;;;;5.78;1.10;;;;;;;;;;5053897;28;20496;-69
2022/09/18 05:51:32;;;;;;;5.00;1.10;;;;;;;;;;5053610;28;20028;-73
2022/09/18 05:53:57;;;;;;;13.75;1.88;;;;;;;;;;5053692;28;20029;-69
2022/09/18 05:56:23;;;;;;;8.65;1.73;;;;;;;;;;5052291;28;20032;-69
2022/09/18 05:58:48;;;;;;;11.63;1.80;;;;;;;;;;5053647;28;20025;-72
2022/09/18 06:01:14;;;;;;;13.27;1.90;;;;;;;;;;5053533;28;20112;-69
2022/09/18 06:03:40;;;;;;;8.93;1.40;;;;;;;;;;5053434;28;20441;-70
2022/09/18 06:06:06;;;;;;;10.20;1.40;;;;;;;;;;5053488;28;20547;-69
2022/09/18 06:08:32;;;;;;;10.18;1.95;;;;;;;;;;5053252;28;20021;-70
2022/09/18 06:11:01;;;;;;;13.80;2.00;;;;;;;;;;5053474;28;20385;-68
2022/09/18 06:13:27;;;;;;;14.98;2.08;;;;;;;;;;5053271;28;20032;-70
2022/09/18 06:15:53;;;;;;;10.48;1.60;;;;;;;;;;5053268;28;20029;-68
2022/09/18 06:18:19;;;;;;;13.68;2.05;;;;;;;;;;5053207;28;20032;-69
2022/09/18 06:20:52;;;;;;;9.00;1.63;;;;;;;;;;5052750;28;20056;-69
2022/09/18 06:23:18;;;;;;;7.13;1.52;;;;;;;;;;5051737;28;20028;-69
2022/09/18 06:25:43;;;;;;;12.65;1.70;;;;;;;;;;5052910;28;20499;-69
2022/09/18 06:28:09;;;;;;;10.20;1.92;;;;;;;;;;5053000;28;20033;-70
2022/09/18 06:30:35;;;;;;;7.88;1.73;;;;;;;;;;5053162;28;20036;-68
2022/09/18 06:33:06;;;;;;;8.00;1.50;;;;;;;;;;5052950;28;20029;-68
2022/09/18 06:35:32;;;;;;;11.23;1.88;;;;;;;;;;5053015;28;20442;-69
2022/09/18 06:38:05;;;;;;;13.23;1.45;;;;;;;;;;5052878;28;20033;-69
2022/09/18 06:40:32;;;;;;;6.57;1.48;;;;;;;;;;5052921;28;20040;-69
2022/09/18 06:42:58;;;;;;;15.65;2.20;;;;;;;;;;5052923;28;20033;-68
2022/09/18 06:45:25;;;;;;;14.25;2.22;;;;;;;;;;5052928;28;20037;-68
2022/09/18 06:47:54;;;;;;;14.38;2.15;;;;;;;;;;5051677;28;20048;-68
2022/09/18 06:50:23;;;;;;;11.98;1.90;;;;;;;;;;5051855;28;20033;-69
2022/09/18 06:52:49;;;;;;;7.60;1.50;;;;;;;;;;5052680;28;20040;-69
2022/09/18 06:55:15;;;;;;;11.40;2.20;;;;;;;;;;5052621;28;20277;-69
2022/09/18 06:57:41;;;;;;;11.63;1.67;;;;;;;;;;5052553;28;20517;-72
2022/09/18 07:00:08;;;;;;;6.68;1.45;;;;;;;;;;5052631;28;20037;-69
2022/09/18 07:02:34;;;;;;;9.65;1.83;;;;;;;;;;5052517;28;20442;-69
2022/09/18 07:04:59;;;;;;;9.30;1.65;;;;;;;;;;5052690;28;20463;-69
2022/09/18 07:07:25;;;;;;;9.48;1.80;;;;;;;;;;5052671;28;20032;-69
2022/09/18 07:09:51;;;;;;;12.40;1.45;;;;;;;;;;5052453;28;20048;-69
2022/09/18 07:12:16;;;;;;;9.63;1.40;;;;;;;;;;5052557;28;20021;-70
2022/09/18 07:14:42;;;;;;;9.23;1.45;;;;;;;;;;5052624;28;20029;-68
2022/09/18 07:17:11;;;;;;;9.80;1.50;;;;;;;;;;5052460;28;20063;-72
2022/09/18 07:19:37;;;;;;;11.32;1.50;;;;;;;;;;5052272;28;20041;-70
2022/09/18 07:22:03;;;;;;;6.60;1.35;;;;;;;;;;5051974;28;20104;-69
2022/09/18 07:24:28;;;;;;;8.77;1.60;;;;;;;;;;5052371;28;20098;-68
2022/09/18 07:26:54;;;;;;;10.18;1.45;;;;;;;;;;5052238;28;20450;-69
2022/09/18 07:29:20;;;;;;;6.50;1.70;;;;;;;;;;5052392;28;20055;-72
2022/09/18 07:31:46;;;;;;;7.10;1.60;;;;;;;;;;5052162;28;20036;-69
2022/09/18 07:34:12;;;;;;;8.73;1.92;;;;;;;;;;5052371;28;20115;-70
2022/09/18 07:36:37;;;;;;;7.88;1.38;;;;;;;;;;5052219;28;20513;-72
2022/09/18 07:39:04;;;;;;;11.95;1.77;;;;;;;;;;5052263;28;20087;-71
2022/09/18 07:41:29;;;;;;;9.48;1.30;;;;;;;;;;5052209;28;20033;-72
2022/09/18 07:43:55;;;;;;;8.00;1.38;;;;;;;;;;5049495;28;20485;-72
2022/09/18 07:46:20;;;;;;;12.10;1.67;;;;;;;;;;5052044;28;20027;-72
2022/09/18 07:48:46;;;;;;;12.20;2.00;;;;;;;;;;5052164;28;20029;-72
2022/09/18 07:51:11;;;;;;;6.00;1.45;;;;;;;;;;5051701;28;20406;-73
2022/09/18 07:53:37;;;;;;;12.05;1.67;;;;;;;;;;5052034;28;20025;-72
2022/09/18 07:56:10;;;;;;;10.05;1.45;;;;;;;;;;5051806;28;20025;-72
2022/09/18 07:58:36;;;;;;;12.55;1.92;;;;;;;;;;5051935;28;20029;-73
2022/09/18 08:01:02;;;;;;;10.02;1.92;;;;;;;;;;5051661;28;20040;-71
2022/09/18 08:03:28;;;;;;;11.10;1.65;;;;;;;;;;5055476;28;20115;-72
2022/09/18 08:05:54;;;;;;;9.02;1.40;;;;;;;;;;5055458;28;20116;-72
2022/09/18 08:08:19;;;;;;;9.88;1.88;;;;;;;;;;5055511;28;20171;-72
2022/09/18 08:10:45;;;;;;;8.68;1.55;;;;;;;;;;5055521;28;20021;-73
2022/09/18 08:13:11;;;;;;;7.95;1.50;;;;;;;;;;5055376;28;20122;-72
2022/09/18 08:15:39;;;;;;;21.65;2.13;;;;;;;;;;5055410;28;20394;-69
2022/09/18 08:18:05;;;;;;;8.88;2.15;;;;;;;;;;5055331;28;20024;-69
2022/09/18 08:20:32;;;;;;;10.93;1.60;;;;;;;;;;5054867;28;20048;-72
2022/09/18 08:22:58;;;;;;;8.38;1.75;;;;;;;;;;5071645;28;20030;-72
2022/09/18 08:25:26;;;;;;;9.82;1.90;;;;;;;;;;5075362;28;20342;-72
2022/09/18 08:27:51;;;;;;;9.75;1.55;;;;;;;;;;5071777;28;20440;-71
2022/09/18 08:30:17;;;;;;;7.90;1.23;;;;;;;;;;5073822;28;20103;-71
2022/09/18 08:32:42;;;;;;;11.80;1.80;;;;;;;;;;5074964;28;20078;-70
2022/09/18 08:35:09;;;;;;;13.13;2.50;;;;;;;;;;5074641;28;20104;-72
2022/09/18 08:37:36;;;;;;;4.55;1.08;;;;;;;;;;5074930;28;20487;-72
2022/09/18 08:40:03;;;;;;;6.82;1.17;;;;;;;;;;5075023;28;20107;-71
2022/09/18 08:43:06;;;;;;;7.10;1.17;;;;;;;;;;5074665;28;20473;-71
2022/09/18 08:46:22;;;;;;;9.80;1.40;;;;;;;;;;5074822;28;20477;-73
2022/09/18 08:49:11;;;;;;;7.85;1.50;;;;;;;;;;5012683;28;20586;-70
2022/09/18 08:51:52;;;;;;;10.93;1.93;;;;;;;;;;5012876;28;20041;-72
2022/09/18 08:54:42;;;;;;;4.80;0.95;;;;;;;;;;5013062;28;20256;-69
2022/09/18 08:57:36;;;;;;;7.57;1.70;;;;;;;;;;5012638;28;20041;-69
2022/09/18 09:00:10;;;;;;;10.30;1.95;;;;;;;;;;4916177;29;20123;-71
2022/09/18 09:02:39;;;;;;;11.07;2.05;;;;;;;;;;4916116;29;20397;-69
2022/09/18 09:05:11;;;;;;;8.02;1.50;;;;;;;;;;4916207;29;20478;-70
2022/09/18 09:07:46;;;;;;;10.45;1.50;;;;;;;;;;4916073;29;20115;-72
2022/09/18 09:10:36;;;;;;;8.43;2.40;;;;;;;;;;4916036;29;20040;-71
2022/09/18 09:13:08;;;;;;;13.32;1.90;;;;;;;;;;4899738;29;20128;-72
2022/09/18 09:15:58;;;;;;;3.33;1.08;;;;;;;;;;4897097;29;20060;-68
2022/09/18 09:18:54;;;;;;;7.57;1.83;;;;;;;;;;4896940;29;20040;-67
2022/09/18 09:21:21;;;;;;;9.35;2.13;;;;;;;;;;4896420;29;20045;-68
2022/09/18 09:24:19;;;;;;;9.88;2.60;;;;;;;;;;4931553;29;20055;-69
2022/09/18 09:26:47;;;;;;;10.55;1.92;;;;;;;;;;4878078;29;20071;-68
2022/09/18 09:29:20;;;;;;;8.48;2.35;;;;;;;;;;4877992;29;20044;-71
2022/09/18 09:31:53;;;;;;;9.90;1.80;;;;;;;;;;4877837;29;20049;-69
2022/09/18 09:34:34;;;;;;;6.70;1.30;;;;;;;;;;4878127;29;20108;-69
2022/09/18 09:37:02;;;;;;;9.45;1.70;;;;;;;;;;4922408;29;20130;-72
2022/09/18 09:40:04;;;;;;;6.63;1.58;;;;;;;;;;4953630;29;20039;-68
2022/09/18 09:42:37;;;;;;;4.85;1.23;;;;;;;;;;4957233;28;20094;-70
2022/09/18 09:45:16;;;;;;;5.75;1.30;;;;;;;;;;4953415;29;20536;-70
2022/09/18 09:47:44;;;;;;;7.25;1.58;;;;;;;;;;4953251;28;20047;-69
2022/09/18 09:50:31;;;;;;;10.93;1.65;;;;;;;;;;4953542;28;20425;-70
2022/09/18 09:53:01;;;;;;;7.95;1.20;;;;;;;;;;4953204;29;20031;-69
2022/09/18 09:55:34;;;;;;;4.93;1.30;;;;;;;;;;4953294;29;20027;-71
2022/09/18 09:58:09;;;;;;;5.68;1.50;;;;;;;;;;4953431;29;20039;-69
2022/09/18 10:00:46;;;;;;;6.18;1.20;;;;;;;;;;4953150;28;20564;-69
2022/09/18 10:03:50;;;;;;;7.47;1.30;;;;;;;;;;4981147;28;20073;-69
2022/09/18 10:06:46;;;;;;;5.78;1.30;;;;;;;;;;5027660;28;20032;-73
2022/09/18 10:09:39;;;;;;;7.32;1.50;;;;;;;;;;5050875;28;20041;-69
2022/09/18 10:12:22;;;;;;;7.63;1.42;;;;;;;;;;5051001;28;20028;-69
2022/09/18 10:14:49;;;;;;;7.25;0.95;;;;;;;;;;5050824;28;20037;-69
2022/09/18 10:17:15;;;;;;;8.68;1.27;;;;;;;;;;5050537;28;20474;-69
2022/09/18 10:19:42;;;;;;;7.43;1.58;;;;;;;;;;5050720;28;20099;-70
2022/09/18 10:22:13;;;;;;;6.72;1.30;;;;;;;;;;5036791;28;20037;-71
2022/09/18 10:25:01;;;;;;;6.35;1.20;;;;;;;;;;5030708;28;20025;-71
2022/09/18 10:27:26;;;;;;;4.88;1.30;;;;;;;;;;5030833;28;20044;-70
2022/09/18 10:29:53;;;;;;;4.57;1.60;;;;;;;;;;5030654;28;20025;-69
2022/09/18 10:32:34;;;;;;;6.40;1.20;;;;;;;;;;5030443;28;20040;-72
2022/09/18 10:34:59;;;;;;;8.50;1.33;;;;;;;;;;5030388;28;20044;-69
2022/09/18 10:37:27;;;;;;;6.75;1.30;;;;;;;;;;5030374;28;20045;-71
2022/09/18 10:40:01;;;;;;;9.30;1.42;;;;;;;;;;5058099;28;20032;-69
2022/09/18 10:42:29;;;;;;;4.50;1.33;;;;;;;;;;5072618;28;20025;-68
2022/09/18 10:45:01;;;;;;;8.15;1.42;;;;;;;;;;5069293;28;20485;-69
2022/09/18 10:47:28;;;;;;;9.77;1.20;;;;;;;;;;5068440;28;20036;-72
2022/09/18 10:49:56;;;;;;;7.60;1.33;;;;;;;;;;5068350;28;20056;-72
2022/09/18 10:52:26;;;;;;;3.72;1.25;;;;;;;;;;5068258;28;20108;-69
2022/09/18 10:55:04;;;;;;;9.88;1.88;;;;;;;;;;5068281;28;20474;-68
2022/09/18 10:57:37;;;;;;;7.75;1.63;;;;;;;;;;5068480;28;20520;-69
2022/09/18 11:00:23;;;;;;;6.25;1.20;;;;;;;;;;5068193;28;20029;-71
2022/09/18 11:02:53;;;;;;;6.88;1.20;;;;;;;;;;5057567;28;20033;-72
2022/09/18 11:05:24;;;;;;;7.25;1.42;;;;;;;;;;5068351;28;20024;-69
2022/09/18 11:07:50;;;;;;;;;;;;;;;;;;5062046;28;20111;-72
2022/09/18 11:10:21;;;;;;;8.95;1.13;;;;;;;;;;5042197;28;19913;-72
2022/09/18 11:12:51;;;;;;;4.53;1.15;;;;;;;;;;5036779;28;20031;-72
2022/09/18 11:15:18;;;;;;;10.02;1.48;;;;;;;;;;5038185;28;20025;-72
2022/09/18 11:17:50;;;;;;;5.55;1.27;;;;;;;;;;5046724;28;20088;-70
2022/09/18 11:20:24;;;;;;;6.40;1.50;;;;;;;;;;5047865;28;20053;-71
2022/09/18 11:22:52;;;;;;;3.30;1.15;;;;;;;;;;5047634;28;20498;-69
2022/09/18 11:25:20;;;;;;;9.50;1.40;;;;;;;;;;5048013;28;20044;-71
2022/09/18 11:27:57;;;;;;;6.97;1.30;;;;;;;;;;5047891;28;20025;-70
2022/09/18 11:30:26;;;;;;;5.35;1.20;;;;;;;;;;5047912;28;20048;-70
2022/09/18 11:33:04;;;;;;;12.37;1.33;;;;;;;;;;5048061;28;20088;-71
2022/09/18 11:35:53;;;;;;;4.00;1.00;;;;;;;;;;5047816;28;20064;-68
2022/09/18 11:38:19;;;;;;;9.10;1.20;;;;;;;;;;5052073;28;20025;-71
2022/09/18 11:40:50;;;;;;;3.78;1.15;;;;;;;;;;5056013;28;20125;-67
2022/09/18 11:43:25;;;;;;;7.22;1.20;;;;;;;;;;5055661;28;20091;-71
2022/09/18 11:46:08;;;;;;;6.75;1.55;;;;;;;;;;5056031;28;20098;-67
2022/09/18 11:48:39;;;;;;;7.38;2.25;;;;;;;;;;5055949;28;20033;-71
2022/09/18 11:51:25;;;;;;;5.53;1.30;;;;;;;;;;5054665;28;20032;-71
2022/09/18 11:54:01;;;;;;;7.57;1.42;;;;;;;;;;5054582;28;20029;-70
2022/09/18 11:56:39;;;;;;;6.25;1.27;;;;;;;;;;5055153;28;20067;-72
2022/09/18 11:59:30;;;;;;;5.60;1.10;;;;;;;;;;5055676;28;20025;-71
2022/09/18 12:02:37;;;;;;;6.53;1.30;;;;;;;;;;5055485;28;20381;-70
2022/09/18 12:05:03;;;;;;;4.80;0.90;;;;;;;;;;5051155;28;20045;-71
2022/09/18 12:07:31;;;;;;;10.63;1.70;;;;;;;;;;5053963;28;20084;-70
2022/09/18 12:10:00;;;;;;;3.65;0.90;;;;;;;;;;5053695;28;20051;-71
2022/09/18 12:13:02;;;;;;;5.93;1.17;;;;;;;;;;5051761;28;20075;-71
2022/09/18 12:15:34;;;;;;;7.63;1.20;;;;;;;;;;5053494;28;20033;-67
2022/09/18 12:18:17;;;;;;;6.32;1.10;;;;;;;;;;5053571;28;20473;-67
2022/09/18 12:20:54;;;;;;;3.80;1.17;;;;;;;;;;5052834;28;20146;-68
2022/09/18 12:23:23;;;;;;;3.47;0.90;;;;;;;;;;5054153;28;20069;-70
2022/09/18 12:26:13;;;;;;;3.58;0.90;;;;;;;;;;5054581;28;20025;-70
2022/09/18 12:28:49;;;;;;;3.60;1.00;;;;;;;;;;5055259;28;20504;-67
2022/09/18 12:31:46;;;;;;;5.20;1.15;;;;;;;;;;5055157;28;20493;-67
2022/09/18 12:34:23;;;;;;;5.32;1.33;;;;;;;;;;5050916;28;20033;-67
2022/09/18 12:37:13;;;;;;;6.45;1.02;;;;;;;;;;5054709;28;20028;-69
2022/09/18 12:40:11;;;;;;;4.55;1.08;;;;;;;;;;5053444;28;20025;-67
2022/09/18 12:42:57;;;;;;;3.45;0.90;;;;;;;;;;4993149;28;20053;-67
2022/09/18 12:45:43;;;;;;;4.10;0.90;;;;;;;;;;4993409;28;20154;-70
2022/09/18 12:48:20;;;;;;;5.15;0.80;;;;;;;;;;4992387;28;20054;-67
2022/09/18 12:50:58;;;;;;;3.50;0.70;;;;;;;;;;4993265;28;20526;-67
2022/09/18 12:53:40;;;;;;;4.97;0.80;;;;;;;;;;4976980;28;20046;-67
2022/09/18 12:56:24;;;;;;;5.75;0.60;;;;;;;;;;4992962;28;20038;-71
2022/09/18 12:59:22;;;;;;;3.03;0.70;;;;;;;;;;5002573;28;20059;-70
2022/09/18 13:02:06;;;;;;;6.53;1.08;;;;;;;;;;5012485;28;20042;-71
2022/09/18 13:04:36;;;;;;;7.32;1.08;;;;;;;;;;5012460;28;20069;-67
2022/09/18 13:07:07;;;;;;;5.82;1.48;;;;;;;;;;5012772;28;20038;-67
2022/09/18 13:09:40;;;;;;;4.25;0.90;;;;;;;;;;5012415;28;20034;-67
2022/09/18 13:12:26;;;;;;;8.77;1.13;;;;;;;;;;5012488;28;20042;-67
2022/09/18 13:15:01;;;;;;;4.30;0.90;;;;;;;;;;5012441;28;20040;-66
2022/09/18 13:17:35;;;;;;;3.78;1.02;;;;;;;;;;5023572;28;20041;-67
2022/09/18 13:20:19;;;;;;;4.18;0.93;;;;;;;;;;5073347;28;20444;-70
2022/09/18 13:22:46;;;;;;;3.35;0.90;;;;;;;;;;5053650;28;20037;-69
2022/09/18 13:25:25;;;;;;;9.20;1.20;;;;;;;;;;5053589;28;20033;-67
2022/09/18 13:27:53;;;;;;;8.77;1.42;;;;;;;;;;5053838;28;20025;-67
2022/09/18 13:30:24;;;;;;;3.42;0.88;;;;;;;;;;5053567;28;20021;-68
2022/09/18 13:32:52;;;;;;;5.78;1.02;;;;;;;;;;5053896;28;20041;-66
2022/09/18 13:35:23;;;;;;;4.88;0.77;;;;;;;;;;5053209;28;20056;-68
2022/09/18 13:38:07;;;;;;;6.00;0.88;;;;;;;;;;5052051;28;20430;-70
2022/09/18 13:40:43;;;;;;;5.75;1.15;;;;;;;;;;5053755;28;20040;-68
2022/09/18 13:43:32;;;;;;;5.22;0.95;;;;;;;;;;5053778;28;20078;-69
2022/09/18 13:45:59;;;;;;;6.00;1.27;;;;;;;;;;5053756;28;20029;-68
2022/09/18 13:48:28;;;;;;;4.45;1.25;;;;;;;;;;5051907;28;20080;-69
2022/09/18 13:51:06;;;;;;;3.13;0.75;;;;;;;;;;5052969;28;20025;-69
2022/09/18 13:53:35;;;;;;;4.20;0.93;;;;;;;;;;5052724;28;20390;-68
2022/09/18 13:56:01;;;;;;;5.60;1.00;;;;;;;;;;5052770;28;20569;-69
2022/09/18 13:58:30;;;;;;;7.30;2.00;;;;;;;;;;5053405;28;20104;-68
2022/09/18 14:00:59;;;;;;;3.33;0.70;;;;;;;;;;5053291;28;20074;-69
2022/09/18 14:03:25;;;;;;;5.15;1.00;;;;;;;;;;5053032;28;20020;-68
2022/09/18 14:05:51;;;;;;;3.85;1.00;;;;;;;;;;5052932;28;20502;-69
2022/09/18 14:08:23;;;;;;;5.78;1.00;;;;;;;;;;5053123;28;20059;-68
2022/09/18 14:10:48;;;;;;;5.72;1.65;;;;;;;;;;5053072;28;20033;-70
2022/09/18 14:13:16;;;;;;;8.80;2.55;;;;;;;;;;5053033;28;20163;-70
2022/09/18 14:15:53;;;;;;;5.75;1.20;;;;;;;;;;5052988;28;20029;-67
2022/09/18 14:18:45;;;;;;;6.05;1.05;;;;;;;;;;5053067;28;20032;-68
2022/09/18 14:21:17;;;;;;;2.35;0.90;;;;;;;;;;5049803;28;20041;-67
2022/09/18 14:23:45;;;;;;;6.95;1.35;;;;;;;;;;5052728;28;20531;-70
2022/09/18 14:26:36;;;;;;;5.07;1.10;;;;;;;;;;5052977;28;20044;-70
2022/09/18 14:29:15;;;;;;;3.63;1.38;;;;;;;;;;5052901;28;20427;-67
2022/09/18 14:31:43;;;;;;;4.30;1.10;;;;;;;;;;5052677;28;20029;-71
2022/09/18 14:34:40;;;;;;;2.83;1.02;;;;;;;;;;5052728;28;20040;-72
2022/09/18 14:37:20;;;;;;;4.50;1.08;;;;;;;;;;5047557;28;20043;-71
2022/09/18 14:39:46;;;;;;;3.95;0.82;;;;;;;;;;5052664;28;20029;-71
2022/09/18 14:42:19;;;;;;;3.22;0.80;;;;;;;;;;5052584;28;20359;-70
2022/09/18 14:45:13;;;;;;;5.93;0.90;;;;;;;;;;5052739;28;20021;-73
2022/09/18 14:47:41;;;;;;;3.40;0.90;;;;;;;;;;5048252;28;20061;-70
2022/09/18 14:50:28;;;;;;;1.73;0.70;;;;;;;;;;5052332;28;20025;-68
2022/09/18 14:52:54;;;;;;;0.85;0.50;;;;;;;;;;5052519;28;20021;-67
2022/09/18 14:55:24;;;;;;;2.83;0.80;;;;;;;;;;5052451;28;20025;-71
2022/09/18 14:58:01;;;;;;;2.95;0.73;;;;;;;;;;5052461;28;20032;-67
2022/09/18 15:00:30;;;;;;;3.45;1.00;;;;;;;;;;5052446;28;20035;-67
2022/09/18 15:03:03;;;;;;;2.60;0.80;;;;;;;;;;5052421;28;20087;-67
2022/09/18 15:05:31;;;;;;;3.50;0.85;;;;;;;;;;5052269;28;20086;-68
2022/09/18 15:08:04;;;;;;;5.30;0.80;;;;;;;;;;5052307;28;20037;-70
2022/09/18 15:10:32;;;;;;;2.63;0.60;;;;;;;;;;5052058;28;20401;-70